AAL2689 KPHX-KLAX
Flight info
| Callsign | AAL2689 |
|---|---|
| Flight time | N/A |
| Altitude | 30000 |
| Route | KEENS3 WLVRN ESTWD HLYWD1 |
| Aircraft | A320/M-SDE3FGHIRWY/LB1 |
Departure
| Time | 2026-05-03 21:38 |
|---|---|
| Airport | Phoenix Sky Harbor International Airport (KPHX) |
Arrival
| Time | N/A |
|---|---|
| Airport | Los Angeles International Airport (KLAX) |
| Time | Latitude | Longitude | Altitude | Speed | Heading |
|---|---|---|---|---|---|
| 2026-05-03 21:13 | 33.43729 | -112.00243 | 1124 ft | 0 kts | 92° |
| 2026-05-03 21:28 | 33.43729 | -112.00262 | 1114 ft | 4 kts | 86° |
| 2026-05-03 21:28 | 33.43729 | -112.00287 | 1116 ft | 4 kts | 76° |
| 2026-05-03 21:28 | 33.43717 | -112.00300 | 1114 ft | 4 kts | 1° |
| 2026-05-03 21:29 | 33.43695 | -112.00300 | 1120 ft | 1 kts | 360° |
| 2026-05-03 21:29 | 33.43697 | -112.00300 | 1119 ft | 1 kts | 360° |
| 2026-05-03 21:29 | 33.43705 | -112.00300 | 1116 ft | 2 kts | 360° |
| 2026-05-03 21:29 | 33.43720 | -112.00300 | 1114 ft | 3 kts | 360° |
| 2026-05-03 21:30 | 33.43725 | -112.00300 | 1121 ft | 0 kts | 359° |
| 2026-05-03 21:31 | 33.43726 | -112.00300 | 1121 ft | 1 kts | 359° |
| 2026-05-03 21:32 | 33.43742 | -112.00301 | 1118 ft | 4 kts | 359° |
| 2026-05-03 21:32 | 33.43777 | -112.00301 | 1119 ft | 6 kts | 359° |
| 2026-05-03 21:32 | 33.43830 | -112.00302 | 1119 ft | 9 kts | 359° |
| 2026-05-03 21:32 | 33.43857 | -112.00317 | 1121 ft | 4 kts | 278° |
| 2026-05-03 21:33 | 33.43842 | -112.00345 | 1124 ft | 4 kts | 197° |
| 2026-05-03 21:33 | 33.43806 | -112.00354 | 1120 ft | 6 kts | 191° |
| 2026-05-03 21:33 | 33.43755 | -112.00368 | 1123 ft | 9 kts | 193° |
| 2026-05-03 21:33 | 33.43687 | -112.00380 | 1115 ft | 11 kts | 184° |
| 2026-05-03 21:34 | 33.43602 | -112.00382 | 1121 ft | 13 kts | 181° |
| 2026-05-03 21:34 | 33.43502 | -112.00383 | 1122 ft | 15 kts | 178° |
| 2026-05-03 21:34 | 33.43388 | -112.00380 | 1121 ft | 17 kts | 179° |
| 2026-05-03 21:34 | 33.43261 | -112.00378 | 1120 ft | 19 kts | 177° |
| 2026-05-03 21:35 | 33.43215 | -112.00261 | 1125 ft | 19 kts | 90° |
| 2026-05-03 21:35 | 33.43213 | -112.00095 | 1123 ft | 21 kts | 89° |
| 2026-05-03 21:35 | 33.43213 | -111.99904 | 1122 ft | 24 kts | 90° |
| 2026-05-03 21:35 | 33.43213 | -111.99692 | 1120 ft | 26 kts | 91° |
| 2026-05-03 21:36 | 33.43211 | -111.99466 | 1118 ft | 25 kts | 92° |
| 2026-05-03 21:36 | 33.43182 | -111.99341 | 1123 ft | 12 kts | 149° |
| 2026-05-03 21:36 | 33.43168 | -111.99338 | 1118 ft | 1 kts | 174° |
| 2026-05-03 21:36 | 33.43144 | -111.99342 | 1120 ft | 6 kts | 187° |
| 2026-05-03 21:37 | 33.43104 | -111.99386 | 1123 ft | 10 kts | 247° |
| 2026-05-03 21:37 | 33.43103 | -111.99403 | 1123 ft | 1 kts | 278° |
| 2026-05-03 21:37 | 33.43102 | -111.99726 | 1121 ft | 83 kts | 270° |
| 2026-05-03 21:37 | 33.43103 | -112.00715 | 1126 ft | 153 kts | 269° |
| 2026-05-03 21:38 | 33.43115 | -112.02140 | 1578 ft | 179 kts | 266° |
| 2026-05-03 21:38 | 33.43089 | -112.03751 | 2126 ft | 205 kts | 262° |
| 2026-05-03 21:38 | 33.42988 | -112.05529 | 2660 ft | 228 kts | 262° |
| 2026-05-03 21:38 | 33.42837 | -112.07525 | 3247 ft | 251 kts | 255° |
| 2026-05-03 21:39 | 33.42336 | -112.09582 | 4127 ft | 261 kts | 248° |
| 2026-05-03 21:39 | 33.41699 | -112.11631 | 5202 ft | 265 kts | 245° |
| 2026-05-03 21:39 | 33.41013 | -112.13707 | 6331 ft | 270 kts | 245° |
| 2026-05-03 21:40 | 33.39283 | -112.20005 | 7918 ft | 279 kts | 262° |
| 2026-05-03 21:40 | 33.39424 | -112.22344 | 7992 ft | 284 kts | 276° |
| 2026-05-03 21:40 | 33.39607 | -112.23524 | 8001 ft | 284 kts | 276° |